Time;durP1;ratioP1;P1;durP2;ratioP2;P2;SDS_P1;SDS_P2;PMS_P1;PMS_P2;Temp;Humidity;BMP_temperature;BMP_pressure;BME280_temperature;BME280_humidity;BME280_pressure;Samples;Min_cycle;Max_cycle;Signal;HPM_P1;HPM_P2
2023/08/11 00:00:22;;;;;;;;;13.33;12.67;;;;;21.29;100.00;101757.97;5089119;27;45329;-73
2023/08/11 00:02:51;;;;;;;;;12.33;12.33;;;;;21.34;100.00;101764.81;5100361;27;46185;-73
2023/08/11 00:05:19;;;;;;;;;13.67;11.00;;;;;21.15;100.00;101735.78;5102525;27;45277;-73
2023/08/11 00:07:50;;;;;;;;;12.33;11.33;;;;;21.30;100.00;101764.22;5083566;27;45394;-73
2023/08/11 00:10:16;;;;;;;;;16.67;14.67;;;;;21.27;100.00;101765.28;5082065;27;45806;-73
2023/08/11 00:12:41;;;;;;;;;14.00;13.00;;;;;21.26;100.00;101757.34;5088673;27;46387;-74
2023/08/11 00:15:07;;;;;;;;;11.67;11.67;;;;;21.23;100.00;101758.44;5081742;27;45193;-73
2023/08/11 00:17:33;;;;;;;;;14.33;12.00;;;;;21.23;100.00;101768.34;5083354;27;45341;-73
2023/08/11 00:19:59;;;;;;;;;14.33;14.00;;;;;21.16;100.00;101761.72;5078407;27;45376;-73
2023/08/11 00:22:24;;;;;;;;;14.67;14.67;;;;;21.09;100.00;101753.25;5094933;27;45360;-74
2023/08/11 00:24:49;;;;;;;;;14.33;14.00;;;;;21.07;100.00;101747.09;5082417;27;45301;-74
2023/08/11 00:27:15;;;;;;;;;17.33;11.33;;;;;21.11;100.00;101759.38;5075797;27;46554;-74
2023/08/11 00:29:40;;;;;;;;;16.33;15.00;;;;;21.07;100.00;101763.22;5081806;27;45611;-74
2023/08/11 00:32:05;;;;;;;;;12.33;12.33;;;;;21.09;100.00;101766.72;5086378;27;45582;-74
2023/08/11 00:34:31;;;;;;;;;11.00;11.00;;;;;21.01;100.00;101755.63;5083388;27;51941;-74
2023/08/11 00:36:56;;;;;;;;;15.33;13.33;;;;;21.01;100.00;101758.31;5095359;27;45411;-74
2023/08/11 00:39:21;;;;;;;;;13.33;13.33;;;;;20.97;100.00;101756.84;5084162;27;45526;-74
2023/08/11 00:41:47;;;;;;;;;17.67;16.67;;;;;20.90;100.00;101747.53;5091992;27;45856;-73
2023/08/11 00:44:12;;;;;;;;;14.67;13.33;;;;;20.83;100.00;101738.19;5078069;27;45553;-74
2023/08/11 00:46:39;;;;;;;;;13.67;12.67;;;;;20.91;100.00;101754.59;5099310;27;45396;-74
2023/08/11 00:49:05;;;;;;;;;16.67;14.67;;;;;20.88;100.00;101749.44;5080494;27;45371;-74
2023/08/11 00:51:31;;;;;;;;;14.67;14.67;;;;;20.81;100.00;101744.66;5086014;27;45403;-74
2023/08/11 00:53:57;;;;;;;;;22.33;15.67;;;;;20.75;100.00;101738.75;5073604;28;45285;-74
2023/08/11 00:56:23;;;;;;;;;16.00;13.00;;;;;20.79;100.00;101751.00;5081260;27;45371;-74
2023/08/11 00:58:53;;;;;;;;;14.67;14.00;;;;;20.68;100.00;101734.81;5081600;27;45217;-74
2023/08/11 01:01:18;;;;;;;;;12.67;12.67;;;;;20.75;100.00;101757.56;5094411;27;45350;-74
2023/08/11 01:03:47;;;;;;;;;14.67;14.67;;;;;20.66;100.00;101747.50;5091888;27;45811;-74
2023/08/11 01:06:23;;;;;;;;;14.67;13.67;;;;;20.70;100.00;101754.38;5083938;27;45361;-74
2023/08/11 01:09:18;;;;;;;;;19.00;15.00;;;;;20.66;100.00;101755.59;5081660;27;45482;-74
2023/08/11 01:12:19;;;;;;;;;13.67;13.67;;;;;20.65;100.00;101755.69;5073740;28;47645;-74
2023/08/11 01:15:19;;;;;;;;;9.33;8.33;;;;;20.63;100.00;101760.31;5071469;27;45466;-73
2023/08/11 01:17:48;;;;;;;;;15.00;13.33;;;;;20.61;100.00;101760.47;5081246;27;45368;-74
2023/08/11 01:20:16;;;;;;;;;11.67;11.67;;;;;20.55;100.00;101766.25;5083748;27;45338;-74
2023/08/11 01:22:44;;;;;;;;;14.33;14.00;;;;;20.53;100.00;101768.22;5099187;27;45416;-74
2023/08/11 01:25:13;;;;;;;;;14.33;12.33;;;;;20.54;100.00;101771.75;5083426;27;45439;-74
2023/08/11 01:27:44;;;;;;;;;13.67;13.67;;;;;20.51;100.00;101766.63;5097983;27;45421;-74
2023/08/11 01:30:11;;;;;;;;;15.00;14.00;;;;;20.48;100.00;101767.72;5082229;27;45376;-74
2023/08/11 01:32:36;;;;;;;;;17.67;13.00;;;;;20.45;100.00;101769.75;5095871;27;45381;-74
2023/08/11 01:35:05;;;;;;;;;15.33;15.00;;;;;20.34;100.00;101756.22;5078099;27;45304;-73
2023/08/11 01:37:31;;;;;;;;;15.00;14.00;;;;;20.42;100.00;101764.59;5086490;27;45825;-74
2023/08/11 01:39:57;;;;;;;;;13.33;13.33;;;;;20.41;100.00;101776.31;5076460;27;45522;-74
2023/08/11 01:42:23;;;;;;;;;16.33;15.00;;;;;20.30;100.00;101760.97;5065536;27;45614;-74
2023/08/11 01:44:49;;;;;;;;;18.00;16.00;;;;;20.37;100.00;101778.38;5070904;27;45497;-74
2023/08/11 01:47:16;;;;;;;;;14.00;12.67;;;;;20.26;100.00;101764.81;5095734;27;45472;-74
2023/08/11 01:49:42;;;;;;;;;16.00;14.00;;;;;20.30;100.00;101773.53;5067800;27;45427;-75
2023/08/11 01:52:08;;;;;;;;;14.00;13.33;;;;;20.29;100.00;101778.03;5080592;27;46181;-74
2023/08/11 01:54:34;;;;;;;;;15.33;15.00;;;;;20.27;100.00;101777.31;5080337;27;45373;-74
2023/08/11 01:57:00;;;;;;;;;13.67;13.67;;;;;20.23;100.00;101782.00;5080438;27;45311;-74
2023/08/11 01:59:25;;;;;;;;;14.33;13.67;;;;;20.25;100.00;101789.97;5065256;28;45532;-74
2023/08/11 02:01:51;;;;;;;;;13.67;12.67;;;;;20.24;100.00;101783.75;5081587;27;46536;-75
2023/08/11 02:04:17;;;;;;;;;19.00;13.67;;;;;20.18;100.00;101776.13;5082233;27;45315;-74
2023/08/11 02:06:45;;;;;;;;;16.00;14.00;;;;;20.20;100.00;101773.31;5089804;27;45333;-74
2023/08/11 02:09:12;;;;;;;;;16.00;13.33;;;;;20.15;100.00;101768.28;5077816;27;45528;-74
2023/08/11 02:11:38;;;;;;;;;17.00;15.33;;;;;20.16;100.00;101777.19;5085025;27;45290;-74
2023/08/11 02:14:06;;;;;;;;;12.67;12.67;;;;;20.14;100.00;101774.63;5096055;27;45370;-74
2023/08/11 02:16:32;;;;;;;;;17.67;13.00;;;;;20.14;100.00;101777.31;5092081;27;45209;-74
2023/08/11 02:18:58;;;;;;;;;12.67;9.67;;;;;20.11;100.00;101777.53;5087925;27;45240;-74
2023/08/11 02:21:24;;;;;;;;;15.00;13.00;;;;;20.11;100.00;101774.84;5094331;27;45474;-74
2023/08/11 02:23:49;;;;;;;;;14.67;13.67;;;;;20.11;100.00;101782.91;5083629;27;45294;-74
2023/08/11 02:26:15;;;;;;;;;17.33;12.33;;;;;20.12;100.00;101778.38;5100797;27;45578;-74
2023/08/11 02:28:41;;;;;;;;;13.67;12.67;;;;;20.09;100.00;101775.94;5102596;27;45359;-74
2023/08/11 02:31:08;;;;;;;;;14.33;14.00;;;;;20.09;100.00;101781.31;5086380;27;46157;-74
2023/08/11 02:33:33;;;;;;;;;15.67;15.67;;;;;20.07;100.00;101778.72;5089974;27;45374;-73
2023/08/11 02:35:59;;;;;;;;;16.67;14.67;;;;;20.05;100.00;101777.97;5092225;27;45502;-74
2023/08/11 02:38:24;;;;;;;;;15.00;14.00;;;;;19.95;100.00;101755.41;5090505;27;45288;-74
2023/08/11 02:40:50;;;;;;;;;16.33;15.33;;;;;20.00;100.00;101774.72;5087085;27;45324;-74
2023/08/11 02:43:15;;;;;;;;;17.00;14.33;;;;;20.01;100.00;101775.59;5090559;27;45222;-74
2023/08/11 02:45:41;;;;;;;;;14.00;11.33;;;;;20.00;100.00;101784.63;5082006;27;45284;-74
2023/08/11 02:48:06;;;;;;;;;12.67;12.00;;;;;19.90;100.00;101773.66;5097780;27;48351;-74
2023/08/11 02:50:32;;;;;;;;;14.00;12.33;;;;;19.96;100.00;101783.97;5086020;27;45792;-74
2023/08/11 02:52:58;;;;;;;;;11.33;11.33;;;;;19.92;100.00;101777.13;5087857;27;45348;-74
2023/08/11 02:55:23;;;;;;;;;17.33;14.33;;;;;19.87;100.00;101768.50;5077860;27;45241;-74
2023/08/11 02:57:49;;;;;;;;;12.67;12.67;;;;;19.94;100.00;101782.38;5080427;27;45494;-73
2023/08/11 03:00:14;;;;;;;;;12.67;12.67;;;;;19.86;100.00;101771.31;5081170;27;46514;-74
2023/08/11 03:02:41;;;;;;;;;11.67;10.67;;;;;19.84;100.00;101759.81;5060530;28;45357;-74
2023/08/11 03:05:07;;;;;;;;;14.00;12.00;;;;;19.89;100.00;101773.78;5078871;27;45638;-74
2023/08/11 03:07:36;;;;;;;;;8.00;7.33;;;;;19.86;100.00;101779.38;5084786;27;45513;-74
2023/08/11 03:10:03;;;;;;;;;13.67;13.67;;;;;19.85;100.00;101789.25;5096513;27;45331;-74
2023/08/11 03:12:28;;;;;;;;;14.67;13.00;;;;;19.79;100.00;101787.00;5087810;27;45302;-73
2023/08/11 03:14:54;;;;;;;;;15.00;14.00;;;;;19.84;100.00;101792.03;5072532;28;45343;-74
2023/08/11 03:17:19;;;;;;;;;13.00;13.00;;;;;19.75;100.00;101775.63;5070046;28;45402;-74
2023/08/11 03:19:44;;;;;;;;;13.67;12.33;;;;;19.81;100.00;101795.78;5082247;27;46088;-73
2023/08/11 03:22:10;;;;;;;;;14.33;12.33;;;;;19.80;100.00;101782.50;5081563;27;45731;-74
2023/08/11 03:24:35;;;;;;;;;12.67;11.67;;;;;19.75;100.00;101785.50;5083234;27;45522;-74
2023/08/11 03:27:00;;;;;;;;;11.67;10.33;;;;;19.77;100.00;101792.47;5082419;27;45323;-74
2023/08/11 03:29:26;;;;;;;;;11.00;9.33;;;;;19.75;100.00;101790.88;5096283;27;45345;-74
2023/08/11 03:31:51;;;;;;;;;14.00;12.67;;;;;19.70;100.00;101787.63;5082973;27;45431;-74
2023/08/11 03:34:16;;;;;;;;;11.33;10.33;;;;;19.73;100.00;101788.28;5089686;27;45405;-74
2023/08/11 03:36:43;;;;;;;;;12.00;12.00;;;;;19.72;100.00;101781.22;5085813;27;45605;-74
2023/08/11 03:39:08;;;;;;;;;15.00;14.00;;;;;19.73;100.00;101782.91;5073567;28;46222;-74
2023/08/11 03:41:34;;;;;;;;;17.00;13.33;;;;;19.67;100.00;101775.28;5094326;27;45454;-74
2023/08/11 03:43:59;;;;;;;;;12.33;12.33;;;;;19.65;100.00;101771.00;5097481;27;50937;-74
2023/08/11 03:46:25;;;;;;;;;12.33;12.33;;;;;19.69;100.00;101773.38;5101020;27;45288;-74
2023/08/11 03:48:50;;;;;;;;;12.67;12.00;;;;;19.65;100.00;101771.00;5101546;27;46092;-74
2023/08/11 03:51:15;;;;;;;;;16.00;14.67;;;;;19.65;100.00;101763.81;5085177;27;45406;-74
2023/08/11 03:53:42;;;;;;;;;11.67;11.67;;;;;19.63;100.00;101775.63;5086579;27;45423;-74
2023/08/11 03:56:07;;;;;;;;;12.00;12.00;;;;;19.63;100.00;101772.94;5089504;27;45255;-74
2023/08/11 03:58:39;;;;;;;;;13.00;13.00;;;;;19.61;100.00;101772.16;5082619;27;47681;-74
2023/08/11 04:01:04;;;;;;;;;14.33;13.00;;;;;19.61;100.00;101766.78;5095005;27;45361;-74
2023/08/11 04:03:33;;;;;;;;;13.67;13.67;;;;;19.57;100.00;101755.41;5094980;27;45272;-74
2023/08/11 04:05:58;;;;;;;;;12.33;10.67;;;;;19.51;100.00;101763.88;5081973;27;45287;-74
2023/08/11 04:08:25;;;;;;;;;9.33;9.33;;;;;19.53;100.00;101758.44;5092589;27;45449;-74
2023/08/11 04:10:51;;;;;;;;;14.67;14.00;;;;;19.51;100.00;101755.84;5081092;27;45359;-74
2023/08/11 04:13:16;;;;;;;;;12.67;11.67;;;;;19.51;100.00;101757.66;5082477;27;45367;-74
2023/08/11 04:15:42;;;;;;;;;11.00;8.00;;;;;19.46;100.00;101758.00;5082462;27;45476;-74
2023/08/11 04:18:08;;;;;;;;;14.00;14.00;;;;;19.48;100.00;101764.09;5082332;27;47123;-74
2023/08/11 04:20:33;;;;;;;;;13.33;10.33;;;;;19.43;100.00;101763.59;5081589;27;45429;-74
2023/08/11 04:22:59;;;;;;;;;14.33;12.67;;;;;19.47;100.00;101761.53;5081354;27;45372;-74
2023/08/11 04:25:24;;;;;;;;;13.00;13.00;;;;;19.46;100.00;101757.13;5081977;27;45450;-74
2023/08/11 04:27:49;;;;;;;;;14.67;13.00;;;;;19.43;100.00;101754.66;5084446;28;45365;-74
2023/08/11 04:30:15;;;;;;;;;19.67;14.00;;;;;19.44;100.00;101759.91;5079179;28;45445;-73
2023/08/11 04:32:40;;;;;;;;;13.33;13.33;;;;;19.38;100.00;101754.06;5078848;28;45420;-74
2023/08/11 04:35:07;;;;;;;;;13.33;12.67;;;;;19.35;100.00;101752.47;5094889;27;45246;-74
2023/08/11 04:37:33;;;;;;;;;12.00;12.00;;;;;19.40;100.00;101762.91;5088855;27;45286;-74
2023/08/11 04:39:58;;;;;;;;;16.33;14.00;;;;;19.35;100.00;101754.28;5088953;27;45319;-74
2023/08/11 04:42:23;;;;;;;;;11.67;11.67;;;;;19.32;100.00;101755.38;5090717;27;45384;-74
2023/08/11 04:44:49;;;;;;;;;11.00;10.33;;;;;19.39;100.00;101753.97;5089886;27;45585;-74
2023/08/11 04:47:14;;;;;;;;;16.67;14.00;;;;;19.38;100.00;101754.06;5074603;28;46855;-74
2023/08/11 04:49:41;;;;;;;;;13.00;11.33;;;;;19.34;100.00;101741.84;5081669;27;45376;-74
2023/08/11 04:52:07;;;;;;;;;12.67;11.33;;;;;19.39;100.00;101748.63;5071384;27;45374;-74
2023/08/11 04:54:32;;;;;;;;;12.33;12.00;;;;;19.40;100.00;101757.53;5080336;27;45454;-74
2023/08/11 04:56:57;;;;;;;;;13.00;13.00;;;;;19.34;100.00;101750.75;5091462;27;49087;-74
2023/08/11 04:59:23;;;;;;;;;12.33;12.33;;;;;19.41;100.00;101770.00;5094536;27;45636;-74
2023/08/11 05:01:48;;;;;;;;;11.67;11.33;;;;;19.40;100.00;101758.44;5071094;27;45489;-74
2023/08/11 05:04:14;;;;;;;;;13.33;13.00;;;;;19.42;100.00;101750.25;5085364;27;45454;-73
2023/08/11 05:06:39;;;;;;;;;11.33;11.00;;;;;19.43;100.00;101758.22;5080660;27;46372;-74
2023/08/11 05:09:05;;;;;;;;;13.67;13.67;;;;;19.25;100.00;101728.09;5090084;27;57000;-74
2023/08/11 05:11:30;;;;;;;;;13.67;13.00;;;;;19.38;100.00;101740.66;5096650;27;45549;-74
2023/08/11 05:13:55;;;;;;;;;14.67;13.67;;;;;19.46;100.00;101768.72;5093318;27;45554;-74
2023/08/11 05:16:21;;;;;;;;;15.33;13.33;;;;;19.45;100.00;101755.41;5082015;27;45312;-74
2023/08/11 05:18:47;;;;;;;;;11.33;11.33;;;;;19.48;100.00;101760.56;5091852;27;45668;-74
2023/08/11 05:21:15;;;;;;;;;15.67;13.33;;;;;19.47;100.00;101753.50;5086225;27;45297;-74
2023/08/11 05:23:41;;;;;;;;;17.33;13.67;;;;;19.51;100.00;101761.22;5080951;27;45375;-74
2023/08/11 05:26:07;;;;;;;;;12.67;11.33;;;;;19.57;100.00;101760.78;5080423;28;45432;-74
2023/08/11 05:28:32;;;;;;;;;13.00;13.00;;;;;19.63;100.00;101762.19;5094942;27;45358;-74
2023/08/11 05:30:57;;;;;;;;;15.00;15.00;;;;;19.65;100.00;101758.44;5088192;27;45347;-74
2023/08/11 05:33:24;;;;;;;;;11.00;11.00;;;;;19.69;100.00;101759.09;5096660;27;45670;-74
2023/08/11 05:35:50;;;;;;;;;15.00;13.33;;;;;19.71;100.00;101755.31;5091085;27;45308;-74
2023/08/11 05:38:20;;;;;;;;;14.33;13.33;;;;;19.80;100.00;101761.03;5092995;27;45326;-74
2023/08/11 05:40:45;;;;;;;;;12.67;12.67;;;;;19.79;100.00;101759.28;5081765;27;45329;-74
2023/08/11 05:43:10;;;;;;;;;11.67;11.67;;;;;19.92;100.00;101776.25;5080215;27;50810;-74
2023/08/11 05:45:36;;;;;;;;;16.00;13.00;;;;;19.93;100.00;101773.44;5067827;27;47687;-74
2023/08/11 05:48:01;;;;;;;;;12.67;12.67;;;;;20.03;100.00;101777.19;5087524;27;45272;-74
2023/08/11 05:50:26;;;;;;;;;13.67;12.00;;;;;20.12;100.00;101778.38;5089928;27;45589;-74
2023/08/11 05:52:52;;;;;;;;;13.00;12.00;;;;;20.09;100.00;101774.06;5079794;27;45474;-74
2023/08/11 05:55:17;;;;;;;;;17.00;15.00;;;;;20.26;100.00;101776.44;5092185;27;45383;-74
2023/08/11 05:57:43;;;;;;;;;22.67;16.67;;;;;20.28;100.00;101770.97;5088750;27;45496;-74
2023/08/11 06:00:09;;;;;;;;;24.67;15.33;;;;;20.43;100.00;101775.22;5086344;27;45388;-75
2023/08/11 06:02:34;;;;;;;;;18.67;16.00;;;;;20.52;100.00;101781.75;5084968;27;45620;-75
2023/08/11 06:04:59;;;;;;;;;23.67;17.00;;;;;20.58;100.00;101792.06;5073979;27;45473;-74
2023/08/11 06:07:25;;;;;;;;;17.33;16.00;;;;;20.69;100.00;101792.13;5093760;27;45441;-74
2023/08/11 06:09:50;;;;;;;;;12.33;12.00;;;;;20.83;100.00;101797.34;5086776;27;45830;-74
2023/08/11 06:12:16;;;;;;;;;15.33;11.67;;;;;20.85;100.00;101781.94;5084533;27;45562;-74
2023/08/11 06:14:41;;;;;;;;;20.67;15.33;;;;;21.07;100.00;101794.66;5082378;27;45587;-74
2023/08/11 06:17:07;;;;;;;;;11.33;10.67;;;;;21.11;100.00;101771.94;5088453;27;45490;-76
2023/08/11 06:19:32;;;;;;;;;13.33;12.33;;;;;21.31;100.00;101782.06;5089506;27;45518;-75
2023/08/11 06:21:58;;;;;;;;;11.33;7.00;;;;;21.43;100.00;101780.28;5085081;27;45433;-75
2023/08/11 06:24:23;;;;;;;;;9.00;7.00;;;;;21.50;100.00;101773.44;5081556;27;45639;-75
2023/08/11 06:26:51;;;;;;;;;8.67;7.67;;;;;21.55;100.00;101761.34;5090344;27;45927;-75
2023/08/11 06:29:16;;;;;;;;;8.00;7.33;;;;;21.59;100.00;101765.50;5095499;27;45299;-75
2023/08/11 06:31:42;;;;;;;;;8.00;6.00;;;;;21.82;100.00;101791.47;5094812;27;46576;-75
2023/08/11 06:34:08;;;;;;;;;8.67;7.33;;;;;21.85;100.00;101793.09;5094177;27;45393;-75
2023/08/11 06:36:33;;;;;;;;;6.00;6.00;;;;;21.95;100.00;101794.13;5080745;27;45488;-75
2023/08/11 06:38:59;;;;;;;;;6.00;5.00;;;;;21.98;100.00;101804.66;5081905;27;45335;-75
2023/08/11 06:41:24;;;;;;;;;8.00;7.00;;;;;22.01;100.00;101798.16;5101087;27;45436;-75
2023/08/11 06:43:49;;;;;;;;;7.00;7.00;;;;;22.12;100.00;101806.25;5101862;27;45447;-75
2023/08/11 06:46:15;;;;;;;;;5.00;2.33;;;;;22.06;100.00;101788.72;5089608;27;45278;-75
2023/08/11 06:48:41;;;;;;;;;4.67;4.67;;;;;22.16;100.00;101797.78;5074678;28;45314;-75
2023/08/11 06:51:06;;;;;;;;;6.33;5.00;;;;;22.35;100.00;101821.41;5079624;27;45292;-75
2023/08/11 06:53:31;;;;;;;;;7.33;7.33;;;;;22.32;100.00;101813.56;5087145;27;45273;-75
2023/08/11 06:55:57;;;;;;;;;6.00;6.00;;;;;22.45;100.00;101822.41;5096454;27;46800;-75
2023/08/11 06:58:22;;;;;;;;;5.67;5.67;;;;;22.45;100.00;101832.31;5093175;27;45315;-75
2023/08/11 07:00:47;;;;;;;;;8.33;6.00;;;;;22.35;100.00;101816.03;5073964;28;45627;-75
2023/08/11 07:03:13;;;;;;;;;8.67;7.00;;;;;22.39;100.00;101819.34;5070447;27;45476;-75
2023/08/11 07:05:38;;;;;;;;;6.67;4.00;;;;;22.39;100.00;101838.19;5079308;27;45429;-74
2023/08/11 07:08:04;;;;;;;;;8.33;7.33;;;;;22.40;100.00;101819.22;5076118;27;45464;-75
2023/08/11 07:10:29;;;;;;;;;9.67;6.67;;;;;22.48;100.00;101822.13;5076738;27;46260;-75
2023/08/11 07:12:54;;;;;;;;;9.00;7.67;;;;;22.57;100.00;101834.91;5090015;27;46112;-75
2023/08/11 07:15:20;;;;;;;;;7.00;7.00;;;;;22.53;100.00;101814.56;5092829;27;51877;-75
2023/08/11 07:17:46;;;;;;;;;6.67;6.67;;;;;22.75;100.00;101844.22;5080929;27;45331;-75
2023/08/11 07:20:11;;;;;;;;;6.67;6.67;;;;;22.79;100.00;101831.34;5095049;27;45363;-75
2023/08/11 07:22:38;;;;;;;;;9.67;7.00;;;;;22.96;100.00;101847.00;5090236;27;46042;-75
2023/08/11 07:25:04;;;;;;;;;8.00;8.00;;;;;23.07;100.00;101855.03;5079685;27;45305;-75
2023/08/11 07:27:29;;;;;;;;;12.33;11.33;;;;;23.20;98.95;101865.72;5078894;28;45351;-75
2023/08/11 07:29:54;;;;;;;;;7.33;7.33;;;;;23.29;97.73;101871.19;5080800;27;45747;-75
2023/08/11 07:32:20;;;;;;;;;10.33;10.00;;;;;23.33;97.84;101858.25;5084185;27;46092;-75
2023/08/11 07:34:45;;;;;;;;;9.00;8.00;;;;;23.50;95.80;101862.28;5097978;27;45297;-75
2023/08/11 07:37:10;;;;;;;;;11.67;9.00;;;;;23.48;96.56;101857.03;5097127;27;45263;-75
2023/08/11 07:39:36;;;;;;;;;10.00;9.00;;;;;23.53;95.20;101859.31;5099176;27;45577;-75
2023/08/11 07:42:04;;;;;;;;;7.67;5.00;;;;;23.64;95.12;101872.78;5083162;27;52950;-75
2023/08/11 07:44:32;;;;;;;;;8.00;8.00;;;;;23.67;93.28;101867.97;5079239;27;45453;-75
2023/08/11 07:46:57;;;;;;;;;11.00;9.00;;;;;23.75;94.50;101865.50;5087445;27;45372;-75
2023/08/11 07:49:24;;;;;;;;;10.33;8.67;;;;;23.90;92.97;101868.69;5096597;27;45346;-75
2023/08/11 07:51:49;;;;;;;;;9.67;7.67;;;;;24.04;92.58;101873.78;5093900;27;46288;-76
2023/08/11 07:54:16;;;;;;;;;8.00;7.33;;;;;24.03;92.75;101868.50;5078249;28;45299;-76
2023/08/11 07:56:43;;;;;;;;;10.33;9.00;;;;;23.95;90.97;101852.97;5080206;27;45467;-75
2023/08/11 07:59:08;;;;;;;;;9.00;9.00;;;;;24.18;93.27;101878.03;5080447;28;45422;-75
2023/08/11 08:01:33;;;;;;;;;9.33;9.33;;;;;24.10;91.49;101857.03;5091407;27;46270;-76
2023/08/11 08:03:59;;;;;;;;;10.00;8.00;;;;;24.24;92.59;101872.06;5098590;27;45266;-75
2023/08/11 08:06:24;;;;;;;;;8.00;8.00;;;;;24.35;90.12;101863.88;5086769;27;45430;-75
2023/08/11 08:08:50;;;;;;;;;11.00;9.67;;;;;24.60;90.38;101881.50;5066961;27;45825;-76
2023/08/11 08:11:15;;;;;;;;;10.00;10.00;;;;;24.78;88.06;101877.13;5082566;27;45767;-76
2023/08/11 08:13:41;;;;;;;;;8.33;8.33;;;;;24.92;86.59;101878.63;5082648;27;45371;-76
2023/08/11 08:16:06;;;;;;;;;2.00;2.00;;;;;24.85;85.93;101871.06;5095500;27;45347;-76
2023/08/11 08:18:32;;;;;;;;;9.00;8.00;;;;;24.95;85.55;101876.50;5080142;28;45537;-76
2023/08/11 08:20:57;;;;;;;;;6.67;6.67;;;;;25.00;86.54;101870.69;5078688;27;48457;-76
2023/08/11 08:23:22;;;;;;;;;9.33;9.33;;;;;25.19;85.93;101884.25;5087675;27;45489;-76
2023/08/11 08:25:48;;;;;;;;;8.00;8.00;;;;;25.30;86.91;101884.97;5081327;27;48049;-76
2023/08/11 08:28:13;;;;;;;;;9.00;8.33;;;;;25.25;82.91;101854.75;5079919;28;45303;-76
2023/08/11 08:30:39;;;;;;;;;8.33;7.33;;;;;25.43;81.05;101873.84;5081530;27;46341;-76
2023/08/11 08:33:06;;;;;;;;;6.67;6.00;;;;;25.49;82.04;101865.16;5071409;28;45340;-76
2023/08/11 08:35:31;;;;;;;;;9.00;9.00;;;;;25.64;79.00;101873.75;5085651;27;45276;-76
2023/08/11 08:37:56;;;;;;;;;9.00;9.00;;;;;25.55;80.10;101859.22;5082795;28;45446;-76
2023/08/11 08:40:22;;;;;;;;;8.67;6.33;;;;;25.76;78.12;101878.88;5089176;27;45383;-75
2023/08/11 08:42:49;;;;;;;;;9.00;9.00;;;;;25.83;79.07;101869.16;5095420;27;45953;-76
2023/08/11 08:45:15;;;;;;;;;7.67;7.67;;;;;25.97;77.76;101869.69;5087090;27;45564;-76
2023/08/11 08:47:42;;;;;;;;;11.33;8.67;;;;;26.14;78.05;101871.66;5097504;27;45387;-76
2023/08/11 08:50:09;;;;;;;;;10.00;8.00;;;;;26.19;76.54;101859.41;5096840;27;46168;-76
2023/08/11 08:52:34;;;;;;;;;8.67;8.67;;;;;26.35;77.87;101870.47;5093098;27;45384;-76
2023/08/11 08:55:01;;;;;;;;;8.33;7.00;;;;;26.24;76.41;101869.81;5096033;27;45407;-76
2023/08/11 08:57:26;;;;;;;;;10.00;8.00;;;;;26.36;75.59;101883.03;5094306;27;45471;-76
2023/08/11 08:59:52;;;;;;;;;9.00;9.00;;;;;26.36;76.54;101877.63;5084928;27;46451;-76
2023/08/11 09:02:19;;;;;;;;;10.00;7.00;;;;;26.30;75.49;101848.38;5082118;27;45419;-76
2023/08/11 09:04:47;;;;;;;;;10.00;9.00;;;;;26.64;76.96;101873.06;5081529;27;45378;-76
2023/08/11 09:07:13;;;;;;;;;7.33;7.33;;;;;26.79;74.37;101885.16;5087470;27;45288;-76
2023/08/11 09:09:38;;;;;;;;;5.67;5.67;;;;;26.85;74.47;101881.84;5101665;27;45385;-76
2023/08/11 09:12:04;;;;;;;;;8.00;8.00;;;;;26.88;74.66;101861.69;5095603;27;45454;-76
2023/08/11 09:14:29;;;;;;;;;6.33;6.33;;;;;26.92;72.08;101861.25;5092469;27;45358;-76
2023/08/11 09:16:57;;;;;;;;;8.00;8.00;;;;;26.98;72.27;101864.34;5099333;27;45347;-76
2023/08/11 09:19:23;;;;;;;;;8.00;8.00;;;;;26.94;71.32;101852.91;5091029;27;45393;-76
2023/08/11 09:21:48;;;;;;;;;7.33;7.00;;;;;27.07;71.76;101871.56;5095202;27;45622;-76
2023/08/11 09:24:15;;;;;;;;;9.67;7.00;;;;;27.08;73.19;101871.41;5101350;27;45260;-76
2023/08/11 09:26:46;;;;;;;;;10.67;8.00;;;;;27.11;72.27;101883.84;5100717;27;45455;-76
2023/08/11 09:29:12;;;;;;;;;10.00;9.00;;;;;27.12;73.50;101880.13;5079985;27;47296;-76
2023/08/11 09:31:39;;;;;;;;;9.00;8.00;;;;;27.26;70.88;101894.00;5087244;27;45390;-76
2023/08/11 09:34:16;;;;;;;;;8.00;8.00;;;;;27.37;71.38;101895.66;5081256;27;45383;-76
2023/08/11 09:36:43;;;;;;;;;11.00;8.67;;;;;27.47;69.72;101901.03;5093190;27;46286;-76
2023/08/11 09:39:08;;;;;;;;;8.00;8.00;;;;;27.56;68.57;101900.09;5084481;27;45445;-75
2023/08/11 09:41:42;;;;;;;;;11.00;6.67;;;;;27.66;70.54;101898.16;5081800;27;45445;-75
2023/08/11 09:44:08;;;;;;;;;8.00;8.00;;;;;27.74;68.48;101899.09;5098042;27;45456;-74
2023/08/11 09:46:36;;;;;;;;;7.33;6.00;;;;;27.60;70.25;101888.78;5100707;27;45435;-74
2023/08/11 09:49:01;;;;;;;;;9.33;8.00;;;;;27.67;69.65;101908.91;5093561;27;45930;-75
2023/08/11 09:51:28;;;;;;;;;7.00;7.00;;;;;27.87;69.88;101906.84;5087274;27;45620;-75
2023/08/11 09:53:54;;;;;;;;;6.00;6.00;;;;;27.90;66.67;101911.97;5077191;27;45996;-77
2023/08/11 09:56:21;;;;;;;;;9.33;8.33;;;;;28.03;69.03;101901.53;5098919;27;45319;-77
2023/08/11 09:58:52;;;;;;;;;7.00;6.00;;;;;28.25;68.95;101914.66;5081424;27;46430;-75
2023/08/11 10:01:18;;;;;;;;;9.00;9.00;;;;;28.28;68.28;101895.28;5092306;27;45485;-75
2023/08/11 10:03:47;;;;;;;;;5.33;5.33;;;;;28.51;66.04;101914.63;5085325;27;45359;-77
2023/08/11 10:06:19;;;;;;;;;7.33;6.00;;;;;28.57;66.12;101905.81;5085321;27;45384;-74
2023/08/11 10:08:46;;;;;;;;;5.00;5.00;;;;;28.50;64.74;101910.19;5085526;27;46426;-75
2023/08/11 10:11:12;;;;;;;;;7.00;4.00;;;;;28.39;64.72;101905.91;5090275;27;45418;-75
2023/08/11 10:13:40;;;;;;;;;6.00;5.00;;;;;28.33;66.37;101903.81;5075173;27;45446;-75
2023/08/11 10:16:06;;;;;;;;;5.00;5.00;;;;;28.35;66.77;101881.88;5088966;27;45280;-75
2023/08/11 10:18:32;;;;;;;;;5.00;5.00;;;;;28.39;65.10;101886.00;5089352;27;46026;-75
2023/08/11 10:20:59;;;;;;;;;5.00;5.00;;;;;28.29;65.51;101888.81;5080879;27;45505;-75
2023/08/11 10:23:24;;;;;;;;;5.33;5.00;;;;;28.37;67.45;101885.31;5059891;27;45503;-74
2023/08/11 10:25:50;;;;;;;;;5.67;5.67;;;;;28.46;64.46;101884.34;5082647;27;45280;-75
2023/08/11 10:28:17;;;;;;;;;5.00;5.00;;;;;28.51;64.24;101890.13;5079346;27;46546;-75
2023/08/11 10:30:42;;;;;;;;;5.00;5.00;;;;;28.57;65.37;101878.59;5080598;27;45399;-75
2023/08/11 10:33:09;;;;;;;;;6.00;5.00;;;;;28.46;63.95;101892.50;5082063;27;45501;-75
2023/08/11 10:35:37;;;;;;;;;7.33;6.33;;;;;28.35;62.94;101899.06;5062850;27;45349;-75
2023/08/11 10:38:04;;;;;;;;;7.67;6.00;;;;;28.32;66.55;101891.22;5087505;27;45672;-75
2023/08/11 10:40:38;;;;;;;;;6.33;6.33;;;;;28.52;64.30;101882.81;5074768;27;45307;-75
2023/08/11 10:43:06;;;;;;;;;6.67;5.00;;;;;28.72;65.39;101874.28;5088991;27;46424;-75
2023/08/11 10:45:34;;;;;;;;;6.00;4.67;;;;;28.91;63.74;101871.28;5077381;27;45848;-75
2023/08/11 10:48:07;;;;;;;;;8.00;6.33;;;;;29.09;62.75;101889.38;5092356;27;45293;-75
2023/08/11 10:50:33;;;;;;;;;5.67;5.67;;;;;29.14;65.06;101887.84;5095191;27;45350;-75
2023/08/11 10:53:21;;;;;;;;;6.00;5.00;;;;;29.23;63.22;101867.78;5084310;27;45395;-75
2023/08/11 10:56:00;;;;;;;;;7.67;5.00;;;;;29.16;60.97;101888.53;5085396;27;44755;-75
2023/08/11 10:58:28;;;;;;;;;7.33;5.00;;;;;29.23;62.98;101886.84;5065436;28;47268;-75
2023/08/11 11:00:54;;;;;;;;;6.33;6.33;;;;;29.30;62.13;101876.16;5090366;27;45372;-75
2023/08/11 11:03:20;;;;;;;;;7.67;7.67;;;;;29.46;60.88;101887.09;5092544;27;45446;-78
2023/08/11 11:05:45;;;;;;;;;6.00;6.00;;;;;29.53;58.98;101892.72;5099791;27;45391;-78